Time;durP1;ratioP1;P1;durP2;ratioP2;P2;SDS_P1;SDS_P2;PMS_P1;PMS_P2;Temp;Humidity;BMP_temperature;BMP_pressure;BME280_temperature;BME280_humidity;BME280_pressure;Samples;Min_cycle;Max_cycle;Signal;HPM_P1;HPM_P2
2023/04/02 00:01:00;;;;;;;2.00;1.90;;;2.60;35.40;;;;;;5053447;28;20405;-72
2023/04/02 00:03:44;;;;;;;3.03;2.30;;;2.60;41.70;;;;;;5054078;28;20489;-71
2023/04/02 00:06:29;;;;;;;5.50;1.67;;;2.60;44.10;;;;;;5034535;28;20422;-70
2023/04/02 00:08:58;;;;;;;3.43;1.80;;;2.70;44.10;;;;;;5034236;28;20469;-69
2023/04/02 00:11:36;;;;;;;2.10;1.90;;;2.70;46.20;;;;;;5033095;28;20745;-70
2023/04/02 00:14:04;;;;;;;2.33;1.75;;;2.80;49.40;;;;;;5033777;28;20426;-70
2023/04/02 00:16:31;;;;;;;5.40;1.63;;;2.80;48.20;;;;;;5034199;28;20206;-73
2023/04/02 00:19:01;;;;;;;1.97;1.60;;;2.90;51.70;;;;;;5045208;28;20435;-69
2023/04/02 00:21:32;;;;;;;1.90;1.70;;;3.00;49.70;;;;;;5052964;28;20390;-70
2023/04/02 00:24:00;;;;;;;2.37;2.03;;;3.00;54.40;;;;;;5053452;28;20491;-72
2023/04/02 00:26:36;;;;;;;2.03;1.90;;;3.10;56.90;;;;;;5053835;28;20389;-69
2023/04/02 00:29:05;;;;;;;1.80;1.70;;;3.10;60.50;;;;;;5053737;28;20401;-72
2023/04/02 00:31:32;;;;;;;2.00;1.90;;;3.10;72.20;;;;;;5052107;28;20413;-69
2023/04/02 00:34:00;;;;;;;4.80;2.40;;;3.20;70.10;;;;;;5047392;28;20806;-69
2023/04/02 00:36:30;;;;;;;4.70;1.67;;;3.20;71.60;;;;;;5053601;28;20401;-72
2023/04/02 00:38:58;;;;;;;3.10;1.83;;;3.10;75.60;;;;;;5053505;28;20397;-73
2023/04/02 00:41:34;;;;;;;1.50;1.40;;;3.10;79.80;;;;;;5052544;28;20401;-72
2023/04/02 00:44:01;;;;;;;3.63;2.40;;;3.10;74.00;;;;;;5053378;28;20440;-72
2023/04/02 00:46:45;;;;;;;1.90;1.80;;;3.10;70.30;;;;;;5052474;28;20515;-72
2023/04/02 00:49:35;;;;;;;3.67;1.60;;;3.10;73.80;;;;;;5053023;28;20393;-69
2023/04/02 00:52:09;;;;;;;3.90;1.87;;;3.00;65.10;;;;;;5052201;28;20441;-71
2023/04/02 00:54:55;;;;;;;2.43;2.23;;;3.00;64.90;;;;;;5053515;28;20404;-68
2023/04/02 00:57:24;;;;;;;3.93;1.90;;;2.90;60.70;;;;;;5053367;28;20492;-71
2023/04/02 01:00:11;;;;;;;2.33;2.17;;;2.90;65.10;;;;;;5053062;28;20401;-74
2023/04/02 01:02:39;;;;;;;1.87;1.77;;;2.90;65.00;;;;;;5052072;28;20452;-68
2023/04/02 01:05:13;;;;;;;2.13;1.93;;;2.80;59.70;;;;;;5048159;28;20519;-69
2023/04/02 01:08:10;;;;;;;1.90;1.80;;;2.80;55.10;;;;;;5032668;28;20767;-73
2023/04/02 01:10:41;;;;;;;2.50;2.30;;;2.70;48.00;;;;;;5032348;28;20251;-69
2023/04/02 01:13:16;;;;;;;2.15;2.05;;;2.70;50.40;;;;;;5033068;28;20426;-73
2023/04/02 01:16:08;;;;;;;5.05;2.35;;;2.70;50.20;;;;;;5032560;28;20524;-72
2023/04/02 01:19:00;;;;;;;2.95;1.88;;;2.70;55.70;;;;;;5033071;28;20167;-72
2023/04/02 01:21:52;;;;;;;2.50;1.97;;;2.70;49.30;;;;;;5031408;28;20219;-69
2023/04/02 01:24:20;;;;;;;2.40;1.50;;;2.60;52.60;;;;;;5032834;28;20459;-69
2023/04/02 01:27:00;;;;;;;1.60;1.50;;;2.60;54.60;;;;;;5032490;28;20917;-72
2023/04/02 01:29:37;;;;;;;1.90;1.80;;;2.60;58.80;;;;;;5032335;28;20509;-69
2023/04/02 01:32:09;;;;;;;1.67;1.58;;;2.60;59.90;;;;;;5030617;28;20206;-69
2023/04/02 01:34:36;;;;;;;2.10;1.90;;;2.60;66.50;;;;;;5032984;28;20250;-69
2023/04/02 01:37:27;;;;;;;2.17;1.73;;;2.50;60.20;;;;;;5035322;28;20409;-69
2023/04/02 01:40:02;;;;;;;4.63;1.90;;;2.50;63.80;;;;;;5035614;28;20414;-72
2023/04/02 01:42:47;;;;;;;2.10;2.00;;;2.50;69.70;;;;;;5036254;28;20422;-72
2023/04/02 01:45:18;;;;;;;2.40;1.63;;;2.50;66.40;;;;;;5036629;28;20445;-72
2023/04/02 01:47:45;;;;;;;2.90;2.00;;;2.40;73.40;;;;;;5036172;28;20426;-73
2023/04/02 01:50:35;;;;;;;3.60;1.55;;;2.40;82.50;;;;;;5035870;28;20399;-72
2023/04/02 01:53:22;;;;;;;4.13;1.80;;;2.50;88.90;;;;;;5035486;28;20191;-69
2023/04/02 01:55:53;;;;;;;6.43;2.00;;;2.40;86.20;;;;;;5035458;28;20818;-72
2023/04/02 01:58:26;;;;;;;2.00;1.90;;;2.50;89.70;;;;;;5035880;28;20476;-72
2023/04/02 02:01:09;;;;;;;2.07;1.70;;;2.40;89.70;;;;;;5035697;28;20532;-72
2023/04/02 02:03:36;;;;;;;1.80;1.70;;;2.50;89.70;;;;;;5035998;28;20521;-69
2023/04/02 02:06:04;;;;;;;6.07;1.95;;;2.50;89.70;;;;;;5036417;28;20171;-70
2023/04/02 02:08:37;;;;;;;2.00;1.80;;;2.50;89.70;;;;;;5035227;28;20178;-69
2023/04/02 02:11:03;;;;;;;2.13;1.90;;;2.50;89.70;;;;;;5034586;28;20922;-72
2023/04/02 02:13:30;;;;;;;1.88;1.77;;;2.50;89.70;;;;;;5056266;28;20429;-73
2023/04/02 02:15:59;;;;;;;1.57;1.47;;;2.50;89.00;;;;;;5056423;28;20640;-72
2023/04/02 02:18:26;;;;;;;5.60;1.77;;;2.50;89.40;;;;;;5056235;28;20500;-69
2023/04/02 02:20:53;;;;;;;2.40;1.85;;;2.50;89.50;;;;;;5055093;28;20401;-72
2023/04/02 02:23:20;;;;;;;1.80;1.70;;;2.50;89.60;;;;;;5055784;28;20285;-73
2023/04/02 02:25:47;;;;;;;1.90;1.80;;;2.50;86.30;;;;;;5054240;28;20456;-72
2023/04/02 02:28:28;;;;;;;1.80;1.70;;;2.40;82.50;;;;;;5034476;28;20426;-72
2023/04/02 02:31:17;;;;;;;2.92;1.85;;;2.40;85.00;;;;;;5035048;28;20858;-70
2023/04/02 02:33:48;;;;;;;1.40;1.30;;;2.40;83.10;;;;;;5036004;28;20199;-69
2023/04/02 02:36:23;;;;;;;1.70;1.40;;;2.50;89.50;;;;;;5034727;28;20501;-69
2023/04/02 02:38:59;;;;;;;1.90;1.80;;;2.50;88.80;;;;;;5034979;28;20246;-69
2023/04/02 02:41:25;;;;;;;1.50;1.40;;;2.50;82.90;;;;;;5051873;28;20781;-70
2023/04/02 02:44:11;;;;;;;19.57;2.83;;;2.50;85.00;;;;;;5055786;28;20451;-69
2023/04/02 02:46:43;;;;;;;1.50;1.40;;;2.50;79.70;;;;;;5055078;28;20414;-73
2023/04/02 02:49:19;;;;;;;1.57;1.47;;;2.50;77.30;;;;;;5055711;28;20220;-69
2023/04/02 02:52:12;;;;;;;2.23;2.13;;;2.50;84.20;;;;;;5054564;28;20783;-69
2023/04/02 02:54:43;;;;;;;3.22;1.60;;;2.50;79.60;;;;;;5054609;28;20425;-72
2023/04/02 02:57:15;;;;;;;1.50;1.40;;;2.50;71.70;;;;;;5054886;28;20175;-69
2023/04/02 02:59:45;;;;;;;1.40;1.30;;;2.50;67.40;;;;;;5055376;28;20198;-68
2023/04/02 03:02:12;;;;;;;2.53;1.63;;;2.50;65.60;;;;;;5053265;28;20790;-73
2023/04/02 03:04:37;;;;;;;2.60;1.30;;;2.40;65.00;;;;;;5055419;28;20449;-69
2023/04/02 03:07:07;;;;;;;1.70;1.60;;;2.40;64.00;;;;;;5055261;28;20401;-72
2023/04/02 03:09:45;;;;;;;6.00;1.60;;;2.40;66.60;;;;;;5054705;28;20532;-69
2023/04/02 03:12:38;;;;;;;1.40;1.30;;;2.40;68.80;;;;;;5054273;28;20417;-73
2023/04/02 03:15:15;;;;;;;1.50;1.40;;;2.40;70.10;;;;;;5054397;28;20417;-69
2023/04/02 03:18:02;;;;;;;1.55;1.45;;;2.40;71.90;;;;;;5055171;28;20910;-72
2023/04/02 03:20:45;;;;;;;1.53;1.43;;;2.50;71.40;;;;;;5054319;28;20301;-72
2023/04/02 03:23:34;;;;;;;3.90;1.43;;;2.50;66.70;;;;;;5036669;28;20461;-72
2023/04/02 03:26:08;;;;;;;2.10;1.50;;;2.50;67.20;;;;;;5035138;28;20950;-72
2023/04/02 03:28:41;;;;;;;1.90;1.80;;;2.50;66.10;;;;;;5035244;28;20398;-73
2023/04/02 03:31:16;;;;;;;6.83;1.87;;;2.50;60.90;;;;;;5034088;28;20887;-72
2023/04/02 03:33:46;;;;;;;2.53;1.70;;;2.50;61.70;;;;;;5034322;28;20405;-69
2023/04/02 03:36:27;;;;;;;1.40;1.30;;;2.40;54.40;;;;;;5048220;28;20428;-72
2023/04/02 03:38:56;;;;;;;1.87;1.77;;;2.40;49.00;;;;;;5034807;28;20426;-72
2023/04/02 03:41:52;;;;;;;6.53;2.17;;;2.40;47.40;;;;;;5033669;28;20427;-70
2023/04/02 03:44:28;;;;;;;1.60;1.50;;;2.40;46.20;;;;;;5034260;28;20215;-71
2023/04/02 03:46:59;;;;;;;5.13;1.60;;;2.40;47.50;;;;;;5034708;28;20167;-72
2023/04/02 03:49:40;;;;;;;1.73;1.50;;;2.30;43.50;;;;;;5034107;28;20188;-67
2023/04/02 03:52:05;;;;;;;1.90;1.57;;;2.40;43.20;;;;;;5031310;28;20442;-72
2023/04/02 03:54:32;;;;;;;1.43;1.33;;;2.30;42.70;;;;;;5034673;28;20406;-72
2023/04/02 03:56:59;;;;;;;1.70;1.60;;;2.30;46.10;;;;;;5034779;28;20160;-69
2023/04/02 03:59:33;;;;;;;1.73;1.63;;;2.30;49.30;;;;;;5033905;28;20167;-69
2023/04/02 04:02:21;;;;;;;1.85;1.75;;;2.30;51.00;;;;;;5033567;28;20273;-72
2023/04/02 04:04:49;;;;;;;1.75;1.65;;;2.30;51.40;;;;;;5049300;28;20202;-68
2023/04/02 04:07:40;;;;;;;1.70;1.60;;;2.30;49.50;;;;;;5054282;28;20178;-72
2023/04/02 04:10:08;;;;;;;1.70;1.60;;;2.30;45.90;;;;;;5052869;28;20487;-71
2023/04/02 04:12:42;;;;;;;1.65;1.55;;;2.20;46.70;;;;;;5053966;28;20468;-72
2023/04/02 04:15:13;;;;;;;3.65;1.40;;;2.20;48.20;;;;;;5054118;28;20178;-69
2023/04/02 04:18:12;;;;;;;2.80;1.73;;;2.20;50.50;;;;;;5051842;28;20643;-68
2023/04/02 04:20:58;;;;;;;1.30;1.20;;;2.30;48.50;;;;;;5033376;28;20406;-73
2023/04/02 04:23:29;;;;;;;1.57;1.47;;;2.20;50.10;;;;;;5033952;28;20430;-69
2023/04/02 04:26:18;;;;;;;2.70;1.80;;;2.30;48.20;;;;;;5033789;28;20872;-69
2023/04/02 04:29:21;;;;;;;1.60;1.50;;;2.20;53.50;;;;;;5033977;28;20411;-71
2023/04/02 04:31:53;;;;;;;11.57;1.70;;;2.20;59.80;;;;;;5034634;28;20475;-69
2023/04/02 04:34:30;;;;;;;1.80;1.70;;;2.20;60.20;;;;;;5053615;28;20964;-68
2023/04/02 04:37:01;;;;;;;1.60;1.50;;;2.20;56.50;;;;;;5053694;28;20396;-72
2023/04/02 04:39:48;;;;;;;1.50;1.40;;;2.10;55.10;;;;;;5052422;28;20409;-69
2023/04/02 04:42:32;;;;;;;2.10;2.00;;;2.10;59.60;;;;;;5052624;28;20428;-72
2023/04/02 04:45:10;;;;;;;2.42;1.40;;;2.10;55.70;;;;;;5053423;28;20598;-69
2023/04/02 04:47:42;;;;;;;2.07;1.97;;;2.10;59.90;;;;;;5050668;28;20270;-69
2023/04/02 04:50:14;;;;;;;2.03;1.92;;;2.10;60.40;;;;;;5052181;28;20426;-72
2023/04/02 04:52:41;;;;;;;2.63;2.43;;;2.10;62.60;;;;;;5053388;28;20248;-69
2023/04/02 04:55:33;;;;;;;6.28;1.70;;;2.00;64.00;;;;;;5053413;28;20492;-69
2023/04/02 04:58:05;;;;;;;2.33;1.50;;;2.00;65.90;;;;;;5050169;28;20582;-72
2023/04/02 05:00:46;;;;;;;1.60;1.50;;;2.00;63.90;;;;;;5032341;28;20665;-73
2023/04/02 05:03:18;;;;;;;2.20;1.70;;;2.00;66.50;;;;;;5033338;28;20195;-72
2023/04/02 05:05:44;;;;;;;2.07;1.67;;;2.00;63.60;;;;;;5032721;28;20452;-73
2023/04/02 05:08:19;;;;;;;2.23;1.73;;;2.00;63.80;;;;;;5033042;28;20447;-69
2023/04/02 05:10:55;;;;;;;1.60;1.50;;;2.00;63.50;;;;;;5031482;28;20405;-72
2023/04/02 05:13:41;;;;;;;1.40;1.30;;;1.90;65.60;;;;;;5031965;28;20957;-68
2023/04/02 05:16:16;;;;;;;1.67;1.57;;;2.00;67.10;;;;;;5032497;28;20191;-71
2023/04/02 05:18:58;;;;;;;1.60;1.50;;;1.90;69.30;;;;;;5033173;28;20468;-72
2023/04/02 05:21:38;;;;;;;1.90;1.80;;;1.90;73.80;;;;;;5032096;28;20541;-69
2023/04/02 05:24:21;;;;;;;1.35;1.25;;;1.90;77.00;;;;;;5032747;28;20457;-72
2023/04/02 05:26:50;;;;;;;1.70;1.60;;;1.90;75.80;;;;;;5032712;28;20171;-68
2023/04/02 05:29:31;;;;;;;1.70;1.60;;;2.00;75.80;;;;;;5045540;28;20167;-71
2023/04/02 05:32:03;;;;;;;1.83;1.70;;;2.00;81.90;;;;;;5050859;28;20198;-71
2023/04/02 05:34:33;;;;;;;2.17;1.60;;;2.00;78.30;;;;;;5052651;28;20428;-71
2023/04/02 05:36:59;;;;;;;2.65;1.88;;;2.00;78.20;;;;;;5052870;28;20179;-74
2023/04/02 05:39:26;;;;;;;1.50;1.40;;;2.10;77.30;;;;;;5052846;28;20166;-74
2023/04/02 05:42:02;;;;;;;2.43;1.90;;;2.10;75.90;;;;;;5051754;28;20320;-72
2023/04/02 05:44:32;;;;;;;2.80;1.90;;;2.20;81.50;;;;;;5036583;28;20489;-69
2023/04/02 05:47:04;;;;;;;1.60;1.50;;;2.20;70.80;;;;;;5032333;28;20787;-69
2023/04/02 05:49:46;;;;;;;1.60;1.50;;;2.20;71.30;;;;;;5032316;28;20394;-72
2023/04/02 05:52:18;;;;;;;1.80;1.70;;;2.30;73.20;;;;;;5050686;28;20769;-69
2023/04/02 05:54:50;;;;;;;2.50;1.60;;;2.30;69.20;;;;;;5052619;28;20496;-69
2023/04/02 05:57:21;;;;;;;2.30;1.60;;;2.30;68.20;;;;;;5051741;28;20221;-68
2023/04/02 05:59:55;;;;;;;3.47;1.60;;;2.40;71.90;;;;;;5052613;28;20406;-70
2023/04/02 06:02:38;;;;;;;1.60;1.50;;;2.40;64.70;;;;;;5051237;28;20441;-68
2023/04/02 06:05:17;;;;;;;2.60;1.77;;;2.50;62.80;;;;;;5038034;28;20461;-73
2023/04/02 06:08:02;;;;;;;3.23;1.40;;;2.50;55.50;;;;;;5032647;28;20486;-68
2023/04/02 06:10:41;;;;;;;1.40;1.30;;;2.60;57.70;;;;;;5031660;28;20406;-72
2023/04/02 06:13:10;;;;;;;3.97;1.70;;;2.60;55.50;;;;;;5032579;28;20426;-73
2023/04/02 06:15:37;;;;;;;1.60;1.50;;;2.60;54.60;;;;;;5032543;28;20460;-68
2023/04/02 06:18:19;;;;;;;1.73;1.63;;;2.70;51.40;;;;;;5031787;28;20426;-72
2023/04/02 06:20:45;;;;;;;1.67;1.57;;;2.70;49.30;;;;;;5031438;28;20433;-70
2023/04/02 06:23:14;;;;;;;2.03;1.73;;;2.80;52.90;;;;;;5034954;28;20855;-72
2023/04/02 06:25:52;;;;;;;3.13;1.90;;;2.90;46.30;;;;;;5036115;28;20457;-68
2023/04/02 06:28:28;;;;;;;3.83;2.23;;;2.90;42.80;;;;;;5036192;28;20398;-68
2023/04/02 06:31:00;;;;;;;4.40;2.03;;;2.90;38.10;;;;;;5034244;28;20822;-68
2023/04/02 06:33:25;;;;;;;6.23;1.70;;;3.00;26.60;;;;;;5042017;28;20442;-73
2023/04/02 06:35:53;;;;;;;1.93;1.70;;;3.10;22.10;;;;;;5035687;28;20486;-68
2023/04/02 06:38:25;;;;;;;1.50;1.40;;;3.10;19.90;;;;;;5036034;28;20203;-73
2023/04/02 06:40:56;;;;;;;1.53;1.43;;;3.10;20.90;;;;;;5034927;28;20797;-72
2023/04/02 06:43:40;;;;;;;2.73;2.57;;;3.20;17.40;;;;;;5035839;28;20543;-72
2023/04/02 06:46:32;;;;;;;1.90;1.67;;;3.30;11.50;;;;;;5035405;28;20515;-70
2023/04/02 06:49:06;;;;;;;2.30;1.33;;;3.30;9.60;;;;;;5035732;28;20907;-69
2023/04/02 06:51:35;;;;;;;1.70;1.60;;;3.40;11.20;;;;;;5034313;28;20500;-68
2023/04/02 06:54:01;;;;;;;2.60;1.50;;;3.40;1.20;;;;;;5035174;28;20398;-71
2023/04/02 06:56:47;;;;;;;1.70;1.60;;;3.40;1.00;;;;;;5035721;28;20909;-72
2023/04/02 06:59:14;;;;;;;1.70;1.60;;;3.50;1.00;;;;;;5034819;28;20517;-72
2023/04/02 07:01:46;;;;;;;1.80;1.67;;;3.50;1.00;;;;;;5034135;28;20527;-69
2023/04/02 07:04:12;;;;;;;1.70;1.60;;;3.50;1.00;;;;;;5034178;28;20988;-69
2023/04/02 07:06:38;;;;;;;2.17;1.80;;;3.50;1.00;;;;;;5035745;28;20740;-71
2023/04/02 07:09:04;;;;;;;5.70;1.67;;;3.60;1.00;;;;;;5035388;28;20536;-72
2023/04/02 07:11:30;;;;;;;1.70;1.60;;;3.70;1.00;;;;;;5034426;28;20429;-72
2023/04/02 07:13:56;;;;;;;1.70;1.60;;;3.70;1.00;;;;;;5051415;28;20436;-72
2023/04/02 07:16:26;;;;;;;1.67;1.57;;;3.80;1.00;;;;;;5055255;28;20394;-69
2023/04/02 07:19:03;;;;;;;2.40;1.50;;;3.90;1.00;;;;;;5055123;28;20163;-68
2023/04/02 07:21:29;;;;;;;1.93;1.83;;;3.90;1.00;;;;;;5054155;28;20890;-68
2023/04/02 07:23:55;;;;;;;5.73;2.03;;;3.90;1.00;;;;;;5055152;28;20429;-72
2023/04/02 07:26:27;;;;;;;1.70;1.60;;;3.90;1.00;;;;;;5055025;28;20479;-69
2023/04/02 07:28:54;;;;;;;2.43;1.93;;;4.00;1.00;;;;;;5034308;28;21053;-69
2023/04/02 07:31:25;;;;;;;1.90;1.80;;;4.10;1.00;;;;;;5033849;28;20485;-69
2023/04/02 07:33:59;;;;;;;3.63;1.80;;;4.10;1.00;;;;;;5033384;28;20391;-69
2023/04/02 07:36:27;;;;;;;3.63;1.60;;;4.20;1.00;;;;;;5034898;28;20489;-68
2023/04/02 07:38:52;;;;;;;3.07;2.67;;;4.20;1.00;;;;;;5034885;28;20406;-69
2023/04/02 07:41:19;;;;;;;2.33;1.57;;;4.30;1.00;;;;;;5033280;28;20437;-72
2023/04/02 07:43:46;;;;;;;2.00;1.90;;;4.30;1.00;;;;;;5033497;28;20167;-72
2023/04/02 07:46:15;;;;;;;1.60;1.50;;;4.50;1.00;;;;;;5034663;28;20445;-69
2023/04/02 07:48:41;;;;;;;1.57;1.47;;;4.50;1.00;;;;;;5033537;28;20413;-71
2023/04/02 07:51:33;;;;;;;1.80;1.70;;;4.60;1.00;;;;;;5033112;28;20418;-69
2023/04/02 07:54:00;;;;;;;1.40;1.30;;;4.70;1.00;;;;;;5032676;28;20418;-73
2023/04/02 07:56:27;;;;;;;1.70;1.60;;;4.70;1.00;;;;;;5034886;28;20410;-69
2023/04/02 07:58:53;;;;;;;1.80;1.70;;;4.70;1.00;;;;;;5034553;28;20398;-72
2023/04/02 08:01:25;;;;;;;7.13;1.53;;;4.80;1.00;;;;;;5033392;28;20430;-69
2023/04/02 08:03:52;;;;;;;2.00;1.90;;;4.80;1.00;;;;;;5038948;28;20485;-68
2023/04/02 08:06:18;;;;;;;3.30;2.13;;;4.90;1.00;;;;;;5040872;28;20428;-68
2023/04/02 08:08:44;;;;;;;2.00;1.80;;;4.90;1.00;;;;;;5043541;28;20429;-69
2023/04/02 08:11:10;;;;;;;2.03;1.83;;;5.10;1.00;;;;;;5050178;28;20535;-69
2023/04/02 08:13:36;;;;;;;1.60;1.50;;;5.10;1.00;;;;;;5053943;28;20414;-72
2023/04/02 08:16:02;;;;;;;2.00;1.80;;;5.20;1.00;;;;;;5054221;28;20432;-69
2023/04/02 08:18:29;;;;;;;1.90;1.80;;;5.20;1.00;;;;;;5039675;28;20441;-73
2023/04/02 08:20:55;;;;;;;1.93;1.73;;;5.30;1.00;;;;;;5031850;28;20418;-72
2023/04/02 08:23:22;;;;;;;2.23;2.03;;;5.20;1.00;;;;;;5033889;28;20432;-73
2023/04/02 08:25:48;;;;;;;5.37;1.50;;;5.30;1.00;;;;;;5033276;28;20462;-69
2023/04/02 08:28:14;;;;;;;1.60;1.50;;;5.30;1.00;;;;;;5033359;28;20457;-69
2023/04/02 08:30:41;;;;;;;1.90;1.80;;;5.40;1.00;;;;;;5033096;28;20486;-68
2023/04/02 08:33:06;;;;;;;3.13;1.63;;;5.40;1.00;;;;;;5033526;28;20981;-69
2023/04/02 08:35:32;;;;;;;1.33;1.23;;;5.40;1.00;;;;;;5051537;28;20453;-69
2023/04/02 08:37:58;;;;;;;2.27;1.60;;;5.50;1.00;;;;;;5034548;28;20191;-69
2023/04/02 08:40:36;;;;;;;2.27;2.17;;;5.60;1.00;;;;;;5032860;28;20172;-72
2023/04/02 08:43:20;;;;;;;2.50;1.73;;;5.70;1.00;;;;;;5033564;28;20431;-69
2023/04/02 08:46:04;;;;;;;2.50;1.67;;;5.80;1.00;;;;;;5032863;28;20836;-69
2023/04/02 08:48:32;;;;;;;2.50;1.67;;;6.20;1.00;;;;;;5033051;28;20795;-69
2023/04/02 08:50:59;;;;;;;1.97;1.77;;;6.20;1.00;;;;;;5032617;28;20422;-70
2023/04/02 08:53:32;;;;;;;1.90;1.80;;;6.10;1.00;;;;;;5033317;28;20425;-69
2023/04/02 08:56:16;;;;;;;1.90;1.80;;;6.00;1.00;;;;;;5033488;28;20818;-72
2023/04/02 08:58:56;;;;;;;1.50;1.40;;;6.20;1.00;;;;;;5033418;28;20456;-70
2023/04/02 09:01:45;;;;;;;1.73;1.63;;;6.40;1.00;;;;;;5032001;28;20987;-70
2023/04/02 09:04:17;;;;;;;1.60;1.50;;;6.30;1.00;;;;;;5045560;28;20555;-72
2023/04/02 09:06:44;;;;;;;1.73;1.63;;;6.40;1.00;;;;;;5050200;28;20425;-70
2023/04/02 09:09:12;;;;;;;2.43;2.23;;;6.50;1.00;;;;;;5053240;28;20453;-72
2023/04/02 09:11:41;;;;;;;1.67;1.57;;;6.60;1.00;;;;;;5052238;28;20508;-71
2023/04/02 09:14:18;;;;;;;4.63;1.30;;;6.60;1.00;;;;;;5053020;28;20396;-69
2023/04/02 09:16:51;;;;;;;2.00;1.80;;;6.80;1.00;;;;;;5038605;28;20429;-70
2023/04/02 09:19:32;;;;;;;2.10;1.90;;;7.00;1.00;;;;;;5032247;28;20994;-69
2023/04/02 09:22:08;;;;;;;3.13;2.33;;;7.40;1.00;;;;;;5032173;28;20460;-70
2023/04/02 09:24:35;;;;;;;1.50;1.40;;;7.70;1.00;;;;;;5033080;28;20848;-73
2023/04/02 09:27:01;;;;;;;1.87;1.50;;;7.90;1.00;;;;;;5033109;28;20409;-69
2023/04/02 09:29:44;;;;;;;1.40;1.30;;;7.80;1.00;;;;;;5033041;28;20464;-72
2023/04/02 09:32:36;;;;;;;1.60;1.50;;;8.20;1.00;;;;;;5041134;28;20452;-72
2023/04/02 09:35:22;;;;;;;1.50;1.30;;;8.40;1.00;;;;;;5052916;28;20394;-69
2023/04/02 09:38:07;;;;;;;1.50;1.40;;;8.20;1.00;;;;;;5052369;28;20403;-70
2023/04/02 09:40:50;;;;;;;1.73;1.10;;;8.10;1.00;;;;;;5051861;28;20417;-70
2023/04/02 09:43:21;;;;;;;1.53;1.43;;;8.60;1.00;;;;;;5052908;28;20425;-70
2023/04/02 09:46:05;;;;;;;1.43;1.07;;;9.00;1.00;;;;;;5040877;28;20437;-72
2023/04/02 09:48:38;;;;;;;1.70;1.23;;;9.50;1.00;;;;;;5032901;28;20373;-74
2023/04/02 09:51:05;;;;;;;1.30;1.20;;;9.90;1.00;;;;;;5031886;28;20945;-69
2023/04/02 09:53:39;;;;;;;2.50;1.00;;;9.70;1.00;;;;;;5032713;28;20432;-72
2023/04/02 09:56:16;;;;;;;3.93;1.20;;;9.40;1.00;;;;;;5032155;28;20409;-71
2023/04/02 09:58:44;;;;;;;3.07;1.20;;;9.50;1.00;;;;;;5036200;28;20391;-71
2023/04/02 10:01:30;;;;;;;3.87;1.53;;;9.30;1.00;;;;;;5048412;28;20411;-71
2023/04/02 10:03:58;;;;;;;1.10;1.00;;;9.40;1.00;;;;;;5056631;28;20401;-69
2023/04/02 10:06:26;;;;;;;2.07;1.10;;;9.40;1.00;;;;;;5056511;28;20449;-71
2023/04/02 10:08:52;;;;;;;1.67;1.07;;;9.40;1.00;;;;;;5056554;28;20412;-71
2023/04/02 10:11:20;;;;;;;1.20;1.10;;;9.50;1.00;;;;;;5055484;28;20492;-72
2023/04/02 10:13:57;;;;;;;1.03;0.90;;;10.00;1.00;;;;;;5047586;28;20168;-72
2023/04/02 10:16:48;;;;;;;1.53;0.90;;;10.30;1.00;;;;;;5035055;28;20835;-71
2023/04/02 10:19:32;;;;;;;1.53;1.30;;;9.70;1.00;;;;;;5036435;28;20409;-71
2023/04/02 10:22:02;;;;;;;4.30;1.20;;;10.20;1.00;;;;;;5035505;28;20428;-73
2023/04/02 10:24:28;;;;;;;2.60;1.20;;;10.40;1.00;;;;;;5036083;28;20453;-73
2023/04/02 10:27:27;;;;;;;1.50;1.13;;;10.80;1.00;;;;;;5035719;28;20438;-72
2023/04/02 10:30:02;;;;;;;2.70;1.23;;;10.80;1.00;;;;;;5041683;28;20437;-72
2023/04/02 10:32:36;;;;;;;1.80;0.93;;;10.80;1.00;;;;;;5055340;28;20429;-72
2023/04/02 10:35:14;;;;;;;1.40;1.30;;;11.10;1.00;;;;;;5056005;28;20421;-73
2023/04/02 10:37:46;;;;;;;1.60;1.37;;;10.60;1.00;;;;;;5056002;28;20409;-69
2023/04/02 10:40:38;;;;;;;1.23;1.07;;;10.20;1.00;;;;;;5055150;28;20413;-72
2023/04/02 10:43:35;;;;;;;1.00;0.90;;;10.10;1.00;;;;;;5035773;28;20434;-72
2023/04/02 10:46:20;;;;;;;2.37;1.10;;;10.60;1.00;;;;;;5035967;28;20462;-71
2023/04/02 10:48:48;;;;;;;1.67;1.10;;;10.80;1.00;;;;;;5035755;28;20398;-73
2023/04/02 10:51:32;;;;;;;2.23;1.37;;;11.10;1.00;;;;;;5034147;28;20433;-72
2023/04/02 10:54:20;;;;;;;1.40;1.17;;;10.80;1.00;;;;;;5035839;28;20414;-72
2023/04/02 10:56:48;;;;;;;2.90;1.30;;;11.10;1.00;;;;;;5035612;28;20406;-71
2023/04/02 10:59:21;;;;;;;1.63;1.17;;;11.00;1.00;;;;;;5042219;28;20435;-71
2023/04/02 11:01:48;;;;;;;2.23;1.00;;;11.20;1.00;;;;;;5054546;28;20520;-72
2023/04/02 11:04:31;;;;;;;2.40;1.17;;;11.50;1.00;;;;;;5055415;28;20459;-71
2023/04/02 11:07:06;;;;;;;3.27;1.00;;;11.50;1.00;;;;;;5055329;28;20955;-72
2023/04/02 11:09:37;;;;;;;1.80;1.07;;;11.40;1.00;;;;;;5039196;28;20955;-72
2023/04/02 11:12:05;;;;;;;1.10;1.00;;;11.70;1.00;;;;;;5034004;28;20505;-72
2023/04/02 11:14:32;;;;;;;1.83;0.93;;;12.40;1.00;;;;;;5035500;28;20406;-71
2023/04/02 11:17:01;;;;;;;1.67;1.20;;;12.00;1.00;;;;;;5035253;28;20430;-73
2023/04/02 11:19:30;;;;;;;1.40;1.10;;;12.10;1.00;;;;;;5035378;28;20398;-73
2023/04/02 11:22:02;;;;;;;2.17;1.10;;;12.80;1.00;;;;;;5034374;28;20422;-73
2023/04/02 11:24:35;;;;;;;1.10;0.87;;;13.10;1.00;;;;;;5034639;28;20539;-73
2023/04/02 11:27:10;;;;;;;1.33;1.17;;;12.90;1.00;;;;;;5034469;28;20394;-72
2023/04/02 11:30:02;;;;;;;1.30;1.10;;;12.70;1.00;;;;;;5035136;28;20428;-70
2023/04/02 11:32:35;;;;;;;1.50;1.40;;;11.70;1.00;;;;;;5033893;28;20450;-71
2023/04/02 11:35:24;;;;;;;1.40;1.17;;;11.30;1.00;;;;;;5034893;28;20437;-70
2023/04/02 11:37:51;;;;;;;5.23;1.93;;;11.20;1.00;;;;;;5034831;28;20756;-69
2023/04/02 11:40:16;;;;;;;1.73;1.20;;;9.90;1.00;;;;;;5034025;28;20417;-71
2023/04/02 11:42:47;;;;;;;1.20;1.10;;;9.80;1.00;;;;;;5034444;28;20807;-69
2023/04/02 11:45:22;;;;;;;1.57;1.30;;;9.60;1.00;;;;;;5033784;28;20207;-71
2023/04/02 11:48:02;;;;;;;1.40;1.30;;;10.10;1.00;;;;;;5034849;28;20394;-70
2023/04/02 11:50:31;;;;;;;1.87;1.67;;;10.20;1.00;;;;;;5033783;28;20434;-71
2023/04/02 11:53:11;;;;;;;2.73;1.70;;;10.70;1.00;;;;;;5034562;28;20892;-70
2023/04/02 11:55:39;;;;;;;1.20;1.10;;;10.90;1.00;;;;;;5034564;28;20456;-71
2023/04/02 11:58:23;;;;;;;4.10;1.43;;;11.20;1.00;;;;;;5033693;28;20846;-73
2023/04/02 12:01:28;;;;;;;2.10;1.90;;;11.40;1.00;;;;;;5039833;28;20851;-72
2023/04/02 12:04:12;;;;;;;1.60;1.50;;;11.50;1.00;;;;;;5049832;28;20441;-71
2023/04/02 12:07:09;;;;;;;1.50;1.40;;;11.10;1.00;;;;;;5041384;28;20436;-69
2023/04/02 12:09:51;;;;;;;1.80;1.70;;;10.30;1.00;;;;;;5032521;28;20476;-71
2023/04/02 12:12:38;;;;;;;1.57;1.47;;;10.10;1.00;;;;;;5034726;28;20416;-73
2023/04/02 12:15:27;;;;;;;2.93;1.40;;;10.40;1.00;;;;;;5033146;28;20422;-70
2023/04/02 12:18:10;;;;;;;1.77;1.40;;;10.00;1.00;;;;;;5032941;28;20427;-72
2023/04/02 12:20:36;;;;;;;3.07;1.50;;;10.50;1.00;;;;;;5032157;28;20430;-73
2023/04/02 12:23:03;;;;;;;2.70;1.40;;;11.30;1.00;;;;;;5041939;28;20453;-72
2023/04/02 12:25:30;;;;;;;1.30;1.20;;;11.70;1.00;;;;;;5033338;28;20489;-73
2023/04/02 12:28:17;;;;;;;2.07;1.97;;;11.10;1.00;;;;;;5033808;28;20401;-71
2023/04/02 12:30:45;;;;;;;3.10;2.00;;;10.40;1.00;;;;;;5035850;28;20982;-73
2023/04/02 12:33:23;;;;;;;1.20;1.10;;;10.90;1.00;;;;;;5032872;28;20943;-73
2023/04/02 12:35:53;;;;;;;2.23;1.60;;;11.50;1.00;;;;;;5033494;28;20953;-72
2023/04/02 12:38:50;;;;;;;6.17;1.50;;;11.50;1.00;;;;;;5032984;28;20786;-72
2023/04/02 12:41:26;;;;;;;2.73;1.33;;;11.70;1.00;;;;;;5032559;28;20473;-72
2023/04/02 12:44:10;;;;;;;3.00;1.30;;;12.70;1.00;;;;;;5033914;28;20430;-73
2023/04/02 12:46:38;;;;;;;1.97;1.20;;;13.10;1.00;;;;;;5032776;28;20430;-72
2023/04/02 12:49:20;;;;;;;1.67;1.00;;;13.90;1.00;;;;;;5033581;28;20399;-72
2023/04/02 12:51:47;;;;;;;3.70;1.33;;;13.60;1.00;;;;;;5031651;28;20469;-73
2023/04/02 12:54:17;;;;;;;2.60;1.10;;;14.10;1.00;;;;;;5032561;28;20472;-73
2023/04/02 12:56:43;;;;;;;1.20;1.10;;;13.70;1.00;;;;;;5053316;28;20878;-72
2023/04/02 12:59:34;;;;;;;4.57;1.63;;;13.40;1.00;;;;;;5046485;28;20424;-73
2023/04/02 13:02:14;;;;;;;2.70;1.20;;;12.90;1.00;;;;;;5032530;28;20929;-71
2023/04/02 13:04:51;;;;;;;1.90;1.73;;;12.30;1.00;;;;;;5049210;28;20495;-72
2023/04/02 13:07:19;;;;;;;1.40;1.30;;;12.40;1.00;;;;;;5053326;28;20409;-73
2023/04/02 13:09:50;;;;;;;1.40;1.27;;;12.00;1.00;;;;;;5033489;28;20429;-72
2023/04/02 13:12:40;;;;;;;2.20;1.30;;;12.00;1.00;;;;;;5032288;28;20418;-69
2023/04/02 13:15:38;;;;;;;1.50;1.40;;;11.50;1.00;;;;;;5033932;28;20441;-69
2023/04/02 13:18:26;;;;;;;1.60;1.50;;;11.10;1.00;;;;;;5044209;28;20415;-69
2023/04/02 13:21:04;;;;;;;2.10;1.70;;;10.50;1.00;;;;;;5032101;28;20415;-69
2023/04/02 13:23:31;;;;;;;1.87;1.77;;;10.30;1.00;;;;;;5032390;28;20420;-72
2023/04/02 13:26:23;;;;;;;1.57;1.37;;;10.80;1.00;;;;;;5032215;28;20948;-73
2023/04/02 13:28:59;;;;;;;1.63;1.47;;;11.80;1.00;;;;;;5030762;28;20437;-71
2023/04/02 13:31:26;;;;;;;1.70;1.30;;;11.40;1.00;;;;;;5031522;28;20446;-72
2023/04/02 13:33:51;;;;;;;1.57;1.27;;;11.40;1.00;;;;;;5032155;28;20577;-71
2023/04/02 13:36:17;;;;;;;2.43;1.57;;;12.40;1.00;;;;;;5032184;28;20978;-73
2023/04/02 13:38:43;;;;;;;2.00;1.47;;;13.00;1.00;;;;;;5032716;28;20179;-73
2023/04/02 13:41:22;;;;;;;3.00;1.60;;;12.90;1.00;;;;;;5031621;28;20187;-71